CYKQ

Waskaganish Airport

Waskaganish, Quebec, Canada
METAR CYKQ 261300Z 16012KT 15SM FEW260 04/M04 A2972 RMK CI1 SLP066
Observed Flight Rules
Apr-26 @ 13:00 UTC (22 minutes ago) Visual Flight Rules
Wind Visibility Clouds
160° at 12 knots 15 miles
  • Few at 26,000' AGL
Temperatures Readings
Current 4°C / 39°F
Dewpoint -4°C / 25°F
Humidity 56%
Altimeter 29.72" Hg
Pressure 1006.6 hPa
Elevation 23
METAR CYKQ 261300Z 16012KT 15SM FEW260 04/M04 A2972 RMK CI1 SLP066
Observed Flight Rules
Apr-26 @ 13:00 UTC
(22 minutes ago)
VFR
Wind Visibility
160° at 12 knots 15 miles
Clouds
  • Few at 26,000' AGL
Temperature Dewpoint
4°C / 39°F -4°C / 25°F
Humidity Altimeter Pressure
56% 29.72" Hg 1006.6 hPa